• Join FlightAware (Why Join?)
  • Login
  • US Flag 
04:07PM EDT


 

Airport Tracker/Info


-or-


 

Live Flight TrackerFlight Track Log ✈ SWA2436 ✈ 08-Apr-2013 ✈ KMHT - KMCO

Flight Track Log - Related Links

Times and Time Zones

All times are in EDT time to prevent confusion due to time zone crossing. See the SWA2436 flight status page for this flight to view local times or setup timezone preferences in your user account.

Time Position Orientation Groundspeed Altitude Reporting Facility
EDT Latitude Longitude Course Direction KTS MPH feet Rate Location/Type
05:09PM 43.0131 -71.4519 348° North 188 216 5,400  Level Boston Center
05:10PM 43.0308 -71.3581 75° East 196 226 8,700 3,360 Climbing Boston Center
05:11PM 43.0444 -71.2383 81° East 283 326 11,900 3,540 Climbing Boston Center
05:12PM 43.0617 -71.1158 79° East 339 390 15,800 3,420 Climbing Boston Center
05:13PM 43.0597 -70.9625 91° East 363 418 18,800 3,000 Climbing Boston Center
05:14PM 42.9608 -70.8911 152° Southeast 331 381 21,900 3,060 Climbing Boston Center
05:15PM 42.8511 -70.9419 199° South 326 375 25,000 2,700 Climbing Boston Center
05:16PM 42.7372 -71.0011 201° Southwest 371 427 27,400 2,040 Climbing Boston Center
05:17PM 42.6256 -71.0575 200° South 409 471 29,200 1,860 Climbing Boston Center
05:18PM 42.5114 -71.1192 202° Southwest 430 495 31,200 2,040 Climbing Boston Center
05:19PM 42.4419 -71.2417 232° Southwest 410 472 33,300 1,920 Climbing Boston Center
05:20PM 42.3808 -71.3692 237° Southwest 407 468 35,100 1,920 Climbing Boston Center
05:21PM 42.3297 -71.4881 240° Southwest 407 468 37,200 1,920 Climbing Boston Center
05:22PM 42.2578 -71.6211 234° Southwest 412 474 39,000 1,380 Climbing Boston Center
05:23PM 42.1981 -71.7422 236° Southwest 407 468 40,000 480 Climbing Boston Center
05:24PM 42.1383 -71.8689 238° Southwest 402 463 40,000  Level Boston Center
05:25PM 42.0764 -71.9925 236° Southwest 402 463 40,000  Level Boston Center
05:26PM 42.0164 -72.1158 237° Southwest 402 463 40,000  Level Boston Center
05:27PM 41.9606 -72.2364 238° Southwest 396 456 40,000  Level Boston Center
05:28PM 41.8981 -72.3592 236° Southwest 396 456 40,000  Level Boston Center
05:29PM 41.8378 -72.4792 236° Southwest 396 456 40,000  Level Boston Center
05:30PM 41.7792 -72.5986 237° Southwest 396 456 40,000  Level Boston Center
05:31PM 41.7186 -72.7181 236° Southwest 396 456 40,000  Level Boston Center
05:32PM 41.6597 -72.8403 237° Southwest 396 456 40,000  Level Boston Center
05:33PM 41.5989 -72.9564 235° Southwest 396 456 40,000  Level Boston Center
05:34PM 41.5400 -73.0781 237° Southwest 396 456 40,000  Level Boston Center
05:35PM 41.4914 -73.1772 237° Southwest 390 449 40,000  Level Boston Center
05:36PM 41.4281 -73.2983 235° Southwest 390 449 40,000  Level Boston Center
05:37PM 41.3686 -73.4164 236° Southwest 395 455 40,000  Level Boston Center
05:40PM 41.1997 -73.7217 234° Southwest 398 458 40,000  Level New York Center
05:41PM 41.1322 -73.8372 232° Southwest 406 467 40,000  Level New York Center
05:42PM 41.0647 -73.9497 232° Southwest 401 461 40,000  Level New York Center
05:43PM 40.9992 -74.0619 232° Southwest 401 461 40,000  Level New York Center
05:44PM 40.9314 -74.1714 231° Southwest 401 461 40,000  Level New York Center
05:45PM 40.8700 -74.2725 231° Southwest 396 456 40,000  Level New York Center
05:46PM 40.8022 -74.3814 231° Southwest 391 450 40,000  Level New York Center
05:47PM 40.7319 -74.4981 232° Southwest 391 450 40,000  Level New York Center
05:48PM 40.6617 -74.6119 231° Southwest 396 456 40,000  Level New York Center
05:49PM 40.5911 -74.7283 231° Southwest 402 463 40,000  Level New York Center
05:50PM 40.5144 -74.8386 228° Southwest 408 470 40,000  Level New York Center
05:51PM 40.4378 -74.9486 228° Southwest 408 470 40,000  Level New York Center
05:52PM 40.3631 -75.0531 227° Southwest 408 470 40,000  Level New York Center
05:53PM 40.2883 -75.1572 227° Southwest 402 463 40,000  Level New York Center
05:54PM 40.2133 -75.2667 228° Southwest 402 463 40,000  Level New York Center
05:55PM 40.1364 -75.3731 227° Southwest 402 463 40,000  Level New York Center
05:56PM 40.0592 -75.4817 227° Southwest 407 468 40,000  Level New York Center
05:57PM 39.9817 -75.5875 226° Southwest 407 468 40,000  Level New York Center
05:58PM 39.9064 -75.6961 228° Southwest 407 468 40,000  Level New York Center
06:00PM 39.7694 -75.9156 231° Southwest 381 438 40,000  Level Washington Center
06:01PM 39.6942 -76.0256 228° Southwest 393 452 40,000  Level Washington Center
06:02PM 39.6292 -76.1358 233° Southwest 400 460 40,000  Level Washington Center
06:03PM 39.5578 -76.2483 231° Southwest 400 460 40,000  Level Washington Center
06:04PM 39.4819 -76.3606 229° Southwest 400 460 40,000  Level Washington Center
06:05PM 39.4103 -76.4700 230° Southwest 405 466 40,000  Level Washington Center
06:06PM 39.3428 -76.5844 233° Southwest 405 466 40,000  Level Washington Center
06:07PM 39.2689 -76.6961 230° Southwest 405 466 40,000  Level Washington Center
06:08PM 39.1969 -76.8075 230° Southwest 405 466 40,000  Level Washington Center
06:09PM 39.1250 -76.9186 230° Southwest 405 466 40,000  Level Washington Center
06:10PM 39.0508 -77.0297 229° Southwest 405 466 40,000  Level Washington Center
06:11PM 38.9639 -77.1294 222° Southwest 410 472 40,000  Level Washington Center
06:12PM 38.8794 -77.2208 220° Southwest 410 472 40,000  Level Washington Center
06:13PM 38.7842 -77.3253 221° Southwest 410 472 40,000  Level Washington Center
06:14PM 38.6953 -77.4164 219° Southwest 410 472 40,000  Level Washington Center
06:15PM 38.6083 -77.5100 220° Southwest 410 472 40,000  Level Washington Center
06:16PM 38.5256 -77.6033 221° Southwest 410 472 40,000  Level Washington Center
06:17PM 38.4383 -77.6964 220° Southwest 410 472 40,000  Level Washington Center
06:18PM 38.3533 -77.7892 221° Southwest 410 472 40,000  Level Washington Center
06:19PM 38.2661 -77.8819 220° Southwest 410 472 40,000  Level Washington Center
06:20PM 38.1808 -77.9744 220° Southwest 410 472 40,000  Level Washington Center
06:21PM 38.0936 -78.0667 220° Southwest 410 472 40,000  Level Washington Center
06:22PM 38.0061 -78.1639 221° Southwest 410 472 40,000  Level Washington Center
06:23PM 37.9272 -78.2403 217° Southwest 410 472 40,000  Level Washington Center
06:24PM 37.8269 -78.3367 217° Southwest 410 472 40,000  Level Washington Center
06:25PM 37.7353 -78.4225 217° Southwest 410 472 40,000  Level Washington Center
06:26PM 37.6436 -78.5083 217° Southwest 415 478 40,000  Level Washington Center
06:27PM 37.5517 -78.5939 216° Southwest 415 478 40,000  Level Washington Center
06:28PM 37.4683 -78.6717 217° Southwest 420 483 40,000  Level Washington Center
06:29PM 37.3786 -78.7542 216° Southwest 415 478 40,000  Level Washington Center
06:30PM 37.2844 -78.8417 216° Southwest 415 478 40,000  Level Washington Center
06:31PM 37.1903 -78.9289 216° Southwest 415 478 40,000  Level Washington Center
06:32PM 37.1003 -79.0136 217° Southwest 415 478 40,000  Level Washington Center
06:33PM 36.9975 -79.1053 215° Southwest 420 483 40,000  Level Washington Center
06:34PM 36.9031 -79.1919 216° Southwest 420 483 40,000  Level Washington Center
06:35PM 36.7989 -79.2569 207° Southwest 425 489 40,000  Level Washington Center
06:36PM 36.6947 -79.3222 207° Southwest 425 489 40,000  Level Washington Center
06:37PM 36.6008 -79.3850 208° Southwest 425 489 40,000  Level Washington Center
06:38PM 36.4986 -79.4497 207° Southwest 419 482 40,000  Level Washington Center
06:39PM 36.3922 -79.5142 206° Southwest 419 482 40,000  Level Washington Center
06:41PM 36.1269 -79.6789 207° Southwest 430 495 40,000  Level Atlanta Center
06:42PM 36.0331 -79.7378 207° Southwest 430 495 40,000  Level Atlanta Center
06:43PM 35.9289 -79.8025 207° Southwest 425 489 40,000  Level Atlanta Center
06:44PM 35.8244 -79.8642 206° Southwest 420 483 40,000  Level Atlanta Center
06:45PM 35.7225 -79.9281 207° Southwest 420 483 40,000  Level Atlanta Center
06:46PM 35.6183 -79.9947 207° Southwest 420 483 40,000  Level Atlanta Center
06:47PM 35.5161 -80.0611 208° Southwest 420 483 40,000  Level Atlanta Center
06:48PM 35.4078 -80.1275 207° Southwest 420 483 40,000  Level Atlanta Center
06:49PM 35.2950 -80.1939 206° Southwest 420 483 40,000  Level Atlanta Center
06:50PM 35.1928 -80.2569 207° Southwest 413 475 40,000  Level Atlanta Center
06:52PM 35.0333 -80.3550 207° Southwest 405 466 40,000  Level Jacksonville Center
06:53PM 34.9386 -80.4133 207° Southwest 411 473 40,000  Level Jacksonville Center
06:54PM 34.8250 -80.4775 205° Southwest 416 479 40,000  Level Jacksonville Center
06:55PM 34.7367 -80.5381 209° Southwest 416 479 40,000  Level Jacksonville Center
06:56PM 34.6356 -80.5964 205° Southwest 411 473 40,000  Level Jacksonville Center
06:57PM 34.5300 -80.6572 205° Southwest 411 473 40,000  Level Jacksonville Center
06:58PM 34.4139 -80.6828 190° South 417 480 40,000  Level Jacksonville Center
06:59PM 34.2889 -80.7061 189° South 429 494 40,000  Level Jacksonville Center
07:00PM 34.1725 -80.7239 187° South 434 499 40,000  Level Jacksonville Center
07:01PM 34.0519 -80.7444 188° South 439 505 40,000  Level Jacksonville Center
07:02PM 33.9333 -80.7625 187° South 439 505 40,000  Level Jacksonville Center
07:03PM 33.8125 -80.7828 188° South 444 511 40,000  Level Jacksonville Center
07:04PM 33.6939 -80.8033 188° South 444 511 40,000  Level Jacksonville Center
07:05PM 33.5733 -80.8236 188° South 444 511 40,000  Level Jacksonville Center
07:06PM 33.4544 -80.8411 187° South 439 505 40,000  Level Jacksonville Center
07:07PM 33.3317 -80.8589 187° South 444 511 40,000  Level Jacksonville Center
07:08PM 33.2131 -80.8814 189° South 444 511 40,000  Level Jacksonville Center
07:09PM 33.0964 -80.8989 187° South 444 511 40,000  Level Jacksonville Center
07:10PM 32.9756 -80.9167 187° South 444 511 40,000  Level Jacksonville Center
07:11PM 32.8569 -80.9342 187° South 444 511 40,000  Level Jacksonville Center
07:12PM 32.7383 -80.9539 188° South 444 511 40,000  Level Jacksonville Center
07:13PM 32.6197 -80.9761 189° South 444 511 40,000  Level Jacksonville Center
07:14PM 32.5008 -80.9908 186° South 444 511 40,000  Level Jacksonville Center
07:15PM 32.3739 -81.0133 189° South 428 493 40,000  Level Jacksonville Center
07:16PM 32.2572 -81.0303 187° South 424 488 40,000  Level Jacksonville Center
07:17PM 32.1531 -81.0447 187° South 433 498 40,000  Level Jacksonville Center
07:18PM 32.0217 -81.0622 186° South 433 498 40,000  Level Jacksonville Center
07:19PM 31.9156 -81.0839 190° South 433 498 40,000  Level Jacksonville Center
07:20PM 31.8011 -81.1008 187° South 420 483 40,000  Level Jacksonville Center
07:21PM 31.6739 -81.1203 187° South 426 490 40,000  Level Jacksonville Center
07:22PM 31.5550 -81.1275 183° South 431 496 40,000  Level Jacksonville Center
07:23PM 31.4486 -81.1269 180° South 426 490 40,000  Level Jacksonville Center
07:24PM 31.3150 -81.1272 180° South 431 496 40,000  Level Jacksonville Center
07:25PM 31.1958 -81.1269 180° South 436 502 40,000 -300 Level Jacksonville Center
07:26PM 31.0747 -81.1267 180° South 436 502 39,500 -1,020 Descending Jacksonville Center
07:27PM 30.9536 -81.1267 180° South 442 509 38,000 -1,500 Descending Jacksonville Center
07:28PM 30.8306 -81.1217 178° South 442 509 36,600 -1,560 Descending Jacksonville Center
07:29PM 30.7072 -81.1217 180° South 442 509 34,900 -2,820 Descending Jacksonville Center
07:30PM 30.5800 -81.1239 181° South 447 514 31,000 -2,520 Descending Jacksonville Center
07:31PM 30.4483 -81.1214 179° South 462 532 29,900 -540 Descending Jacksonville Center
07:32PM 30.3231 -81.1214 180° South 462 532 30,000  Climbing Jacksonville Center
07:33PM 30.1936 -81.1189 179° South 462 532 30,000  Level Jacksonville Center
07:34PM 30.0664 -81.1189 180° South 462 532 30,000  Level Jacksonville Center
07:35PM 29.9369 -81.1167 179° South 462 532 30,000 -540 Level Jacksonville Center
07:36PM 29.8094 -81.1189 181° South 462 532 29,000 -1,860 Descending Jacksonville Center
07:37PM 29.6864 -81.1164 179° South 457 526 26,300 -2,760 Descending Jacksonville Center
07:38PM 29.5672 -81.1186 181° South 445 512 23,500 -2,700 Descending Jacksonville Center
07:39PM 29.4525 -81.1181 180° South 428 493 21,000 -2,520 Descending Jacksonville Center
07:40PM 29.3419 -81.1153 179° South 416 479 18,500 -2,580 Descending Jacksonville Center
07:41PM 29.1667 -81.1000 176° South 379 436 14,300 -2,520 Descending Orlando TRACON
07:42PM 29.1286 -81.1003 180° South 392 451 13,500 -1,620 Descending Jacksonville Center
07:43PM 29.0325 -81.0925 176° South 379 436 12,100 -1,260 Descending Jacksonville Center
07:44PM 28.9447 -81.0822 174° South 345 397 11,000 -1,320 Descending Jacksonville Center
07:45PM 28.8631 -81.0669 171° South 320 368 9,500 -1,560 Descending Jacksonville Center
07:45PM 28.8167 -81.0500 162° South 293 337 8,700 -960 Descending Orlando TRACON
07:46PM 28.7833 -81.1167 240° Southwest 253 291 8,100 -840 Descending Orlando TRACON
07:47PM 28.7500 -81.1833 240° Southwest 242 278 7,100 -1,140 Descending Orlando TRACON
07:48PM 28.7000 -81.2333 221° Southwest 237 273 5,900 -1,200 Descending Orlando TRACON
07:49PM 28.6333 -81.2667 204° Southwest 232 267 4,700 -1,320 Descending Orlando TRACON
07:50PM 28.5833 -81.2833 196° South 200 230 3,300 -1,380 Descending Orlando TRACON
07:51PM 28.5333 -81.3000 196° South 177 204 1,900 -1,020 Descending Orlando TRACON
07:52PM 28.4833 -81.3000 180° South 149 171 1,100 -720 Descending Orlando TRACON
07:53PM 28.4500 -81.3000 180° South 117 135 500 -600 Descending Orlando TRACON
07:55PM 28.4294 -81.3090 186° South  Level Estimated
08:02PM 28.4294 -81.3090 186° South  Level Estimated
08:03PM 28.4294 -81.3090 186° South  Level Estimated
08:04PM 28.4294 -81.3090 186° South  Level Estimated
08:05PM 28.4294 -81.3090 186° South  Level Estimated